Latest Weather Observations for Moss Vale

IDN60801

Issued at 6:35 pm EDT Wednesday 22 October 2014 (issued every 30 minutes, with the page automatically refreshed every 10 minutes)

About weather observations | Map of weather stations | Latest weather observations for NSW | Other Formats
Station Details ID: 068239 Name: MOSS VALE AWS Lat: -34.53 Lon: 150.42 Height: 678.4 m
Data from the previous 72 hours. | See also: Recent months at Moss Vale
Date/Time
EDT
Temp
°C
App
Temp
°C
Dew
Point
Rel
Hum
%
Delta-T
°C
Wind Press
QNH
hPa
Press
MSL
hPa
Rain
since 9 am
mm
Dir
 
Spd
km/h
Gust
km/h
Spd
kts
Gust
kts
22/06:30pm 17.4 14.1 11.0 66 3.6 NNE 19 24 10 13 1020.7 1019.6 0.0
22/06:00pm 18.3 14.9 11.4 64 3.9 NE 20 30 11 16 1020.6 1019.5 0.0
22/05:30pm 19.2 15.5 11.5 61 4.4 NNE 22 30 12 16 1020.7 1019.6 0.0
22/05:00pm 19.5 15.4 11.3 59 4.6 NNE 24 33 13 18 1020.6 1019.5 0.0
22/04:30pm 19.7 15.3 11.7 60 4.6 NNE 26 32 14 17 1020.6 1019.5 0.0
22/04:00pm 20.2 16.7 13.4 65 4.0 NE 24 30 13 16 1021.1 1019.9 0.0
22/03:30pm 19.7 16.4 11.7 60 4.6 NE 20 28 11 15 1021.4 1020.3 0.0
22/03:00pm 19.7 16.6 11.5 59 4.7 NNE 19 26 10 14 1021.8 1020.7 0.0
22/02:30pm 19.4 16.1 9.6 53 5.4 NNE 17 24 9 13 1022.3 1021.2 0.0
22/02:00pm 20.0 17.6 9.9 52 5.6 N 13 20 7 11 1023.1 1022.0 0.0
22/01:30pm 18.8 15.3 8.7 52 5.4 N 17 22 9 12 1023.4 1022.3 0.0
22/01:00pm 18.2 15.4 11.3 64 3.9 N 17 22 9 12 1024.0 1023.0 0.0
22/12:30pm 16.7 12.1 6.5 51 5.2 N 20 26 11 14 1024.5 1023.4 0.0
22/12:00pm 16.1 11.5 6.3 52 4.9 N 20 28 11 15 1025.1 1024.1 0.0
22/11:30am 15.7 10.9 7.2 57 4.4 N 22 30 12 16 1025.4 1024.4 0.0
22/11:00am 15.1 9.9 7.4 60 3.9 N 24 33 13 18 1025.9 1024.8 0.0
22/10:30am 14.0 8.1 5.6 57 4.1 NNE 26 35 14 19 1026.1 1025.0 0.0
22/10:00am 13.2 7.5 4.9 57 4.0 N 24 32 13 17 1026.2 1025.1 0.0
22/09:30am 12.4 5.9 4.9 60 3.6 N 28 35 15 19 1026.3 1025.3 0.0
22/09:00am 12.0 6.1 5.6 65 3.1 N 26 35 14 19 1026.4 1025.4 0.0
22/08:30am 10.5 3.2 4.4 66 2.8 N 32 39 17 21 1026.3 1025.3 0.0
22/08:00am 10.1 2.6 4.7 69 2.5 NNE 33 43 18 23 1026.5 1025.5 0.0
22/07:30am 9.6 3.5 4.8 72 2.2 N 26 33 14 18 1026.6 1025.6 0.0
22/07:00am 8.9 3.1 4.5 74 2.0 N 24 35 13 19 1026.5 1025.5 0.0
22/06:30am 8.6 2.8 4.6 76 1.8 N 24 32 13 17 1026.5 1025.5 0.0
22/06:00am 8.5 2.9 5.4 81 1.4 NNE 24 33 13 18 1026.4 1025.4 0.0
22/05:30am 8.6 3.5 5.9 83 1.3 NNE 22 32 12 17 1026.5 1025.5 0.0
22/05:00am 8.9 3.9 6.5 85 1.1 NNE 22 28 12 15 1026.5 1025.5 0.0
22/04:30am 9.0 4.6 6.4 84 1.3 NNE 19 24 10 13 1026.8 1025.8 0.0
22/04:00am 9.1 4.1 6.5 84 1.2 NNE 22 28 12 15 1027.1 1026.1 0.0
22/03:53am 9.1 4.1 6.5 84 1.3 NNE 22 28 12 15 1027.1 1026.1 0.0
22/03:30am 9.1 4.7 6.5 84 1.3 NNE 19 22 10 12 1027.4 1026.3 0.0
22/03:10am 9.1 5.1 6.5 84 1.3 NNE 17 22 9 12 1027.9 1026.9 0.0
22/03:00am 9.1 5.4 6.5 84 1.2 NNE 15 19 8 10 1027.9 1026.9 0.0
22/02:30am 9.1 4.6 6.2 82 1.4 NNE 19 22 10 12 1028.2 1027.2 0.0
22/02:04am 9.2 5.2 6.5 83 1.3 NNE 17 22 9 12 1028.6 1027.6 0.0
22/02:00am 9.3 4.9 6.4 82 1.4 NNE 19 24 10 13 1028.6 1027.6 0.0
22/01:33am 9.3 4.9 6.6 83 1.3 NNE 19 28 10 15 1029.0 1028.0 0.0
22/01:30am 9.4 5.0 6.7 83 1.3 NNE 19 28 10 15 1029.1 1028.1 0.0
22/01:00am 9.3 4.9 6.6 83 1.3 NNE 19 22 10 12 1029.5 1028.5 0.0
22/12:30am 9.4 4.8 6.5 82 1.4 NNE 20 28 11 15 1030.1 1029.2 0.0
22/12:00am 9.6 5.2 6.7 82 1.4 NNE 19 22 10 12 1030.6 1029.6 0.0
 
Date/Time
EDT
Temp
°C
App
Temp
°C
Dew
Point
Rel
Hum
%
Delta-T
°C
Wind Press
QNH
hPa
Press
MSL
hPa
Rain
since 9 am
mm
Dir
 
Spd
km/h
Gust
km/h
Spd
kts
Gust
kts
21/11:30pm 9.7 4.7 6.6 81 1.5 NNE 22 28 12 15 1030.7 1029.7 0.0
21/11:00pm 9.7 5.2 6.2 79 1.7 NNE 19 26 10 14 1030.9 1029.9 0.0
21/10:30pm 9.8 5.2 5.8 76 1.9 NE 19 24 10 13 1031.1 1030.1 0.0
21/10:00pm 9.8 5.6 5.6 75 2.0 NE 17 22 9 12 1031.1 1030.1 0.0
21/09:30pm 9.9 6.1 5.9 76 1.9 NE 15 19 8 10 1031.1 1030.1 0.0
21/09:00pm 9.9 6.5 5.9 76 1.9 NE 13 17 7 9 1031.1 1030.1 0.0
21/08:30pm 9.9 6.5 5.7 75 2.0 NE 13 17 7 9 1031.0 1030.0 0.0
21/08:00pm 10.0 6.2 5.6 74 2.1 ENE 15 19 8 10 1030.7 1029.7 0.0
21/07:30pm 10.0 5.4 5.6 74 2.1 ENE 19 24 10 13 1030.5 1029.5 0.0
21/07:00pm 10.2 6.0 5.6 73 2.2 ENE 17 22 9 12 1030.1 1029.2 0.0
21/06:30pm 10.3 5.7 5.7 73 2.2 ENE 19 24 10 13 1030.1 1029.2 0.0
21/06:00pm 10.5 5.9 5.7 72 2.3 NE 19 24 10 13 1030.0 1029.0 0.0
21/05:30pm 10.6 6.0 5.8 72 2.3 NE 19 22 10 12 1030.0 1029.0 0.0
21/05:00pm 10.5 6.0 5.9 73 2.2 ENE 19 24 10 13 1030.1 1029.2 0.0
21/04:30pm 10.4 6.0 6.4 76 1.9 ENE 19 24 10 13 1030.1 1029.2 0.0
21/04:00pm 10.8 6.8 6.6 75 2.0 ENE 17 24 9 13 1030.1 1029.2 0.0
21/03:50pm 10.7 6.7 6.5 75 2.1 ENE 17 22 9 12 1030.3 1029.4 0.0
21/03:30pm 10.5 6.5 6.8 78 1.8 ENE 17 22 9 12 1030.5 1029.5 0.0
21/03:00pm 10.6 6.3 7.1 79 1.7 ENE 19 22 10 12 1030.8 1029.8 0.0
21/02:35pm 10.3 5.9 6.6 78 1.8 ENE 19 24 10 13 1031.0 1030.0 0.0
21/02:30pm 10.5 6.2 7.0 79 1.7 ENE 19 24 10 13 1031.1 1030.1 0.0
21/02:00pm 10.3 5.8 6.3 76 1.9 ENE 19 24 10 13 1031.4 1030.5 0.0
21/01:30pm 10.7 6.9 5.7 71 2.4 NE 15 19 8 10 1031.9 1031.0 0.0
21/01:00pm 11.0 6.5 6.0 71 2.4 ENE 19 24 10 13 1032.3 1031.3 0.0
21/12:30pm 10.6 6.1 6.0 73 2.2 NE 19 24 10 13 1032.5 1031.5 0.0
21/12:00pm 11.0 6.4 5.7 70 2.5 ENE 19 24 10 13 1032.6 1031.6 0.0
21/11:30am 11.1 6.5 5.4 68 2.7 ENE 19 22 10 12 1032.8 1031.9 0.0
21/11:00am 11.0 6.3 6.0 71 2.4 ENE 20 28 11 15 1032.9 1032.0 0.0
21/10:30am 10.4 6.3 6.2 75 2.0 ENE 17 22 9 12 1033.0 1032.1 0.0
21/10:00am 10.3 5.8 6.1 75 2.0 E 19 26 10 14 1033.0 1032.1 0.0
21/09:54am 10.1 5.4 5.9 75 2.0 E 20 26 11 14 1032.9 1032.0 0.0
21/09:42am 9.9 5.8 6.4 79 1.7 ENE 17 26 9 14 1033.0 1032.1 0.0
21/09:37am 10.3 6.8 7.2 81 1.5 ENE 15 19 8 10 1033.0 1032.1 0.0
21/09:30am 10.0 6.1 7.3 83 1.3 ENE 17 26 9 14 1032.9 1032.0 0.0
21/09:14am 10.1 5.6 6.8 80 1.6 ENE 20 26 11 14 1032.7 1031.8 0.0
21/09:07am 10.2 5.6 6.5 78 1.8 ENE 20 28 11 15 1032.7 1031.8 0.0
21/09:00am 10.3 5.9 6.5 77 1.8 E 19 26 10 14 1032.6 1031.6 0.0
21/08:30am 9.5 5.0 6.2 80 1.6 ENE 19 28 10 15 1032.5 1031.5 0.0
21/08:00am 9.6 5.9 6.5 81 1.5 E 15 22 8 12 1032.2 1031.2 0.0
21/07:38am 9.3 6.3 6.0 80 1.6 E 11 15 6 8 1031.9 1031.0 0.0
21/07:34am 9.3 6.3 6.0 80 1.6 E 11 17 6 9 1031.9 1031.0 0.0
21/07:30am 9.3 5.9 6.0 80 1.6 E 13 17 7 9 1031.8 1030.9 0.0
21/07:00am 9.0 6.0 6.1 82 1.4 ESE 11 15 6 8 1031.6 1030.7 0.0
21/06:30am 8.9 6.9 6.2 83 1.3 E 6 9 3 5 1031.4 1030.5 0.0
21/06:00am 8.8 5.8 6.2 84 1.2 E 11 17 6 9 1031.1 1030.1 0.0
21/05:30am 8.7 4.6 6.2 84 1.2 ESE 17 24 9 13 1031.0 1030.0 0.0
21/05:00am 8.6 5.2 6.1 84 1.2 SE 13 17 7 9 1031.0 1030.0 0.0
21/04:30am 8.6 5.2 5.9 83 1.3 ESE 13 19 7 10 1031.0 1030.0 0.0
21/04:08am 8.7 5.3 5.8 82 1.4 ESE 13 19 7 10 1031.1 1030.1 0.0
21/04:06am 8.6 5.2 5.7 82 1.4 ESE 13 19 7 10 1031.1 1030.1 0.0
21/04:00am 8.6 4.8 5.9 83 1.3 ESE 15 19 8 10 1031.1 1030.1 0.0
21/03:30am 8.5 4.8 6.3 86 1.1 ESE 15 22 8 12 1031.3 1030.3 0.0
21/03:00am 8.5 5.1 6.1 85 1.1 ESE 13 19 7 10 1031.4 1030.5 0.0
21/02:30am 8.8 4.4 6.4 85 1.2 ESE 19 24 10 13 1031.4 1030.5 0.0
21/02:16am 8.7 4.1 6.5 86 1.1 ESE 20 28 11 15 1031.5 1030.6 0.0
21/02:00am 8.8 5.2 6.8 87 1.0 SE 15 24 8 13 1031.5 1030.6 0.0
21/01:42am 9.2 5.7 7.2 87 1.0 ESE 15 19 8 10 1031.6 1030.7 0.0
21/01:30am 9.3 5.8 7.1 86 1.1 ESE 15 20 8 11 1031.6 1030.7 0.0
21/01:00am 9.2 5.7 7.2 87 1.0 ESE 15 19 8 10 1031.7 1030.8 0.0
21/12:30am 9.2 5.7 7.2 87 1.0 ESE 15 19 8 10 1031.9 1031.0 0.0
21/12:00am 9.2 5.4 7.6 90 0.8 ESE 17 22 9 12 1032.2 1031.2 0.0
 
Date/Time
EDT
Temp
°C
App
Temp
°C
Dew
Point
Rel
Hum
%
Delta-T
°C
Wind Press
QNH
hPa
Press
MSL
hPa
Rain
since 9 am
mm
Dir
 
Spd
km/h
Gust
km/h
Spd
kts
Gust
kts
20/11:30pm 9.3 5.9 7.6 89 0.8 ESE 15 19 8 10 1032.3 1031.3 0.0
20/11:00pm 9.3 5.9 7.6 89 0.8 ESE 15 22 8 12 1032.3 1031.3 0.0
20/10:30pm 9.2 6.5 7.5 89 0.8 ESE 11 15 6 8 1032.4 1031.4 0.0
20/10:00pm 9.1 6.7 7.2 88 0.9 ESE 9 15 5 8 1032.4 1031.4 0.0
20/09:30pm 9.2 5.3 7.2 87 1.0 SE 17 22 9 12 1032.3 1031.3 0.0
20/09:06pm 9.3 5.8 7.1 86 1.1 ESE 15 22 8 12 1032.1 1031.1 0.0
20/09:00pm 9.3 5.4 7.1 86 1.1 ESE 17 22 9 12 1032.1 1031.1 0.0
20/08:56pm 9.3 5.4 7.1 86 1.1 ESE 17 22 9 12 1032.1 1031.1 0.0
20/08:30pm 9.2 5.3 7.3 88 0.9 ESE 17 22 9 12 1031.8 1030.9 0.0
20/08:00pm 9.3 5.4 7.3 87 1.0 SE 17 24 9 13 1031.6 1030.7 0.0
20/07:30pm 9.3 6.1 6.9 85 1.2 SE 13 17 7 9 1031.4 1030.5 0.0
20/07:24pm 9.3 5.7 6.7 84 1.3 SE 15 20 8 11 1031.3 1030.3 0.0
20/07:00pm 9.3 6.0 6.6 83 1.3 SE 13 19 7 10 1031.1 1030.1 0.0
20/06:30pm 9.4 4.8 6.5 82 1.4 SE 20 28 11 15 1030.8 1029.8 0.0
20/06:29pm 9.4 4.8 6.3 81 1.5 SE 20 28 11 15 1030.8 1029.8 0.0
20/06:00pm 9.4 5.1 7.0 85 1.2 ESE 19 24 10 13 1030.9 1029.9 0.0
20/05:49pm 9.2 4.9 7.2 87 1.0 SE 19 24 10 13 1030.9 1029.9 0.0
20/05:30pm 9.0 4.5 7.1 88 0.9 ESE 20 28 11 15 1030.8 1029.8 0.0
20/05:13pm 9.7 5.0 7.6 87 1.0 SSE 22 32 12 17 1030.6 1029.6 0.0
20/05:00pm 9.9 5.8 7.7 86 1.1 SE 19 28 10 15 1030.6 1029.6 0.0
20/04:30pm 10.6 6.0 8.2 85 1.2 SE 22 33 12 18 1030.5 1029.5 0.0
20/04:00pm 10.9 6.3 8.1 83 1.4 SE 22 32 12 17 1030.3 1029.4 0.0
20/03:50pm 10.8 6.3 8.4 85 1.2 SE 22 30 12 16 1030.5 1029.5 0.0
20/03:30pm 11.1 6.2 8.5 84 1.3 SE 24 32 13 17 1030.5 1029.5 0.0
20/03:29pm 11.2 6.3 8.4 83 1.4 SE 24 32 13 17 1030.5 1029.5 0.0
20/03:00pm 11.6 7.1 8.6 82 1.5 SE 22 30 12 16 1030.6 1029.6 0.0
20/02:39pm 11.6 7.6 9.2 85 1.2 SE 20 30 11 16 1030.7 1029.7 0.0
20/02:30pm 11.2 6.8 8.9 86 1.2 SE 22 30 12 16 1030.7 1029.7 0.0
20/02:14pm 10.9 6.4 8.7 86 1.1 SE 22 30 12 16 1030.9 1029.9 0.0
20/02:12pm 10.8 5.9 8.4 85 1.2 SE 24 30 13 16 1030.9 1029.9 0.0
20/02:05pm 11.8 7.5 9.2 84 1.4 SE 22 30 12 16 1030.9 1029.9 0.0
20/02:00pm 11.5 7.0 8.7 83 1.4 SE 22 30 12 16 1030.9 1029.9 0.0
20/01:54pm 11.2 6.3 8.6 84 1.3 SE 24 32 13 17 1030.9 1029.9 0.0
20/01:30pm 11.5 7.6 9.6 88 1.0 SE 20 28 11 15 1031.0 1030.0 0.0
20/01:27pm 11.3 7.3 9.0 86 1.2 SE 20 28 11 15 1031.0 1030.0 0.0
20/01:23pm 11.8 7.9 9.5 86 1.2 SE 20 28 11 15 1031.0 1030.0 0.0
20/01:00pm 11.1 6.8 9.4 89 0.9 SSE 22 32 12 17 1031.0 1030.0 0.0
20/12:48pm 11.3 7.3 9.2 87 1.1 SE 20 28 11 15 1031.0 1030.0 0.0
20/12:47pm 11.3 7.3 9.2 87 1.1 SE 20 28 11 15 1031.0 1030.0 0.0
20/12:30pm 11.2 6.9 9.5 89 0.9 SSE 22 30 12 16 1031.2 1030.2 0.0
20/12:00pm 11.3 7.3 9.0 86 1.2 SSE 20 32 11 17 1031.3 1030.3 0.0
20/11:30am 10.8 7.2 8.4 85 1.2 SSE 17 24 9 13 1031.4 1030.5 0.0
20/11:28am 11.0 7.5 8.8 86 1.1 SSE 17 24 9 13 1031.4 1030.5 0.0
20/11:00am 10.6 6.0 8.0 84 1.3 SSE 22 35 12 19 1031.4 1030.5 0.0
20/10:59am 10.6 6.0 8.2 85 1.2 SSE 22 35 12 19 1031.4 1030.5 0.0
20/10:39am 10.4 5.4 8.0 85 1.2 SSE 24 32 13 17 1031.3 1030.3 0.0
20/10:30am 10.7 6.1 8.3 85 1.2 SSE 22 32 12 17 1031.4 1030.5 0.0
20/10:23am 10.6 5.2 8.0 84 1.3 SE 26 39 14 21 1031.4 1030.5 0.0
20/10:07am 10.5 5.5 8.1 85 1.2 SE 24 35 13 19 1031.2 1030.2 0.0
20/10:00am 11.0 6.4 8.2 83 1.4 SSE 22 32 12 17 1031.1 1030.1 0.0
20/09:30am 10.9 5.6 8.3 84 1.3 SE 26 39 14 21 1030.6 1029.6 0.0
20/09:00am 10.9 4.4 8.0 82 1.5 SE 32 43 17 23 1030.0 1029.0 0.0
20/08:30am 11.3 5.6 8.5 83 1.4 SE 28 37 15 20 1029.4 1028.4 0.0
20/08:00am 11.2 5.5 8.4 83 1.4 SE 28 39 15 21 1028.9 1027.9 0.0
20/07:30am 11.4 5.0 8.6 83 1.4 SSE 32 39 17 21 1028.1 1027.1 0.0
20/07:11am 11.2 4.7 8.9 86 1.2 SE 33 46 18 25 1027.8 1026.8 0.0
20/07:00am 11.2 4.9 9.1 87 1.1 SE 32 46 17 25 1027.6 1026.6 0.0
20/06:30am 11.8 5.9 10.5 92 0.7 SE 32 44 17 24 1026.9 1025.9 0.0
20/06:00am 12.1 7.4 10.5 90 0.9 SE 26 39 14 21 1026.4 1025.4 0.0
20/05:50am 12.2 7.2 10.8 91 0.8 SE 28 39 15 21 1026.1 1025.0 0.0
20/05:48am 12.2 7.1 10.6 90 0.9 SE 28 46 15 25 1026.1 1025.0 0.0
20/05:30am 12.6 6.8 10.8 89 1.0 SSE 32 43 17 23 1025.4 1024.4 0.0
20/05:21am 12.8 6.5 11.0 89 1.0 SSE 35 50 19 27 1025.3 1024.3 0.0
20/05:00am 13.5 8.0 10.5 82 1.6 SE 30 43 16 23 1024.9 1023.8 0.0
20/04:30am 14.6 9.4 7.4 62 3.7 S 24 37 13 20 1024.7 1023.6 0.0
20/04:26am 13.6 7.8 7.8 68 3.0 SSE 28 37 15 20 1024.7 1023.6 0.0
20/04:00am 15.0 12.6 6.8 58 4.1 W 9 11 5 6 1023.6 1022.5 0.0
20/03:30am 15.6 13.7 6.6 55 4.6 SSW 6 7 3 4 1023.9 1022.9 0.0
20/03:00am 16.0 13.5 6.7 54 4.7 W 9 13 5 7 1024.0 1023.0 0.0
20/02:30am 16.6 13.7 6.7 52 5.1 W 11 15 6 8 1024.2 1023.1 0.0
20/02:00am 15.8 12.3 7.3 57 4.4 WSW 15 17 8 9 1024.4 1023.3 0.0
20/01:30am 15.4 12.8 7.7 60 4.0 WSW 11 13 6 7 1024.6 1023.5 0.0
20/01:00am 15.4 11.3 7.7 60 4.0 W 19 22 10 12 1024.7 1023.6 0.0
20/12:30am 15.5 11.8 8.0 61 3.9 W 17 20 9 11 1025.0 1024.0 0.0
20/12:00am 15.6 13.5 8.4 62 3.8 W 9 13 5 7 1024.8 1023.7 0.0
 
Date/Time
EDT
Temp
°C
App
Temp
°C
Dew
Point
Rel
Hum
%
Delta-T
°C
Wind Press
QNH
hPa
Press
MSL
hPa
Rain
since 9 am
mm
Dir
 
Spd
km/h
Gust
km/h
Spd
kts
Gust
kts
19/11:30pm 15.2 13.3 9.1 67 3.2 NNW 9 13 5 7 1025.3 1024.3 0.0
19/11:00pm 16.0 14.5 9.0 63 3.7 NNW 7 13 4 7 1025.5 1024.5 0.0
19/10:30pm 17.3 15.4 9.0 58 4.5 W 9 11 5 6 1025.6 1024.6 0.0
19/10:00pm 18.9 16.5 8.8 52 5.4 NW 11 13 6 7 1025.3 1024.3 0.0
19/09:30pm 18.4 15.8 9.5 56 4.9 NW 13 17 7 9 1025.3 1024.3 0.0
19/09:00pm 18.2 17.0 10.3 60 4.3 NW 7 11 4 6 1025.2 1024.2 0.0
19/08:30pm 19.1 17.2 10.4 57 4.8 NNW 11 13 6 7 1024.8 1023.7 0.0
19/08:00pm 19.3 17.4 10.6 57 4.8 N 11 13 6 7 1024.5 1023.4 0.0
19/07:30pm 20.6 19.1 10.7 53 5.6 WNW 9 13 5 7 1024.3 1023.2 0.0
19/07:00pm 21.3 19.1 10.8 51 5.9 W 13 19 7 10 1023.9 1022.9 0.0

Other Formats:

Comma delimited format used in spreadsheet applications
http://www.bom.gov.au/fwo/IDN60801/IDN60801.94746.axf

JavaScript Object Notation format (JSON) in row-major order
http://www.bom.gov.au/fwo/IDN60801/IDN60801.94746.json